Time;durP1;ratioP1;P1;durP2;ratioP2;P2;SDS_P1;SDS_P2;PMS_P1;PMS_P2;Temp;Humidity;BMP_temperature;BMP_pressure;BME280_temperature;BME280_humidity;BME280_pressure;Samples;Min_cycle;Max_cycle;Signal;HPM_P1;HPM_P2
2021/12/06 00:02:05;;;;;;;3.05;2.40;;;;;;;;;;5035513;28;20033;-54
2021/12/06 00:04:36;;;;;;;3.28;2.35;;;;;;;;;;5036489;28;20044;-55
2021/12/06 00:07:06;;;;;;;3.55;2.80;;;;;;;;;;5038710;28;20120;-56
2021/12/06 00:09:31;;;;;;;4.15;3.28;;;;;;;;;;5023408;28;20044;-56
2021/12/06 00:11:59;;;;;;;3.25;2.70;;;;;;;;;;5040471;28;20033;-55
2021/12/06 00:14:29;;;;;;;3.53;2.95;;;;;;;;;;5040920;28;20060;-54
2021/12/06 00:16:56;;;;;;;3.33;2.78;;;;;;;;;;5044388;28;20116;-52
2021/12/06 00:19:22;;;;;;;3.67;3.00;;;;;;;;;;5039514;28;20363;-54
2021/12/06 00:21:47;;;;;;;3.00;2.45;;;;;;;;;;5037620;28;20037;-53
2021/12/06 00:24:13;;;;;;;4.22;3.33;;;;;;;;;;5039537;28;20025;-52
2021/12/06 00:26:38;;;;;;;3.20;2.67;;;;;;;;;;5039074;28;20036;-53
2021/12/06 00:29:03;;;;;;;4.15;3.75;;;;;;;;;;5038592;28;20525;-56
2021/12/06 00:31:32;;;;;;;3.95;2.78;;;;;;;;;;5041029;28;20044;-54
2021/12/06 00:34:02;;;;;;;4.22;3.08;;;;;;;;;;5040131;28;20536;-54
2021/12/06 00:36:29;;;;;;;9.85;3.00;;;;;;;;;;5035812;28;20079;-54
2021/12/06 00:38:56;;;;;;;3.83;2.95;;;;;;;;;;5040071;28;20052;-52
2021/12/06 00:41:21;;;;;;;4.30;3.35;;;;;;;;;;5044011;28;20487;-53
2021/12/06 00:43:47;;;;;;;3.97;3.17;;;;;;;;;;5035587;28;20118;-53
2021/12/06 00:46:12;;;;;;;3.70;3.25;;;;;;;;;;5036026;28;20025;-51
2021/12/06 00:48:38;;;;;;;4.60;4.18;;;;;;;;;;5034602;28;20025;-58
2021/12/06 00:51:04;;;;;;;3.47;2.72;;;;;;;;;;5036212;28;20041;-53
2021/12/06 00:53:30;;;;;;;3.33;2.95;;;;;;;;;;5039623;28;20115;-54
2021/12/06 00:55:56;;;;;;;3.78;3.00;;;;;;;;;;5040332;28;20044;-52
2021/12/06 00:58:21;;;;;;;3.65;3.15;;;;;;;;;;5040381;28;20091;-53
2021/12/06 01:00:50;;;;;;;4.65;3.53;;;;;;;;;;5034089;28;20037;-53
2021/12/06 01:03:27;;;;;;;7.82;3.20;;;;;;;;;;5041789;28;20541;-54
2021/12/06 01:05:52;;;;;;;4.30;3.05;;;;;;;;;;5039632;28;20041;-54
2021/12/06 01:08:19;;;;;;;4.07;3.17;;;;;;;;;;5038057;28;20044;-54
2021/12/06 01:10:45;;;;;;;3.55;2.95;;;;;;;;;;5040247;28;20143;-52
2021/12/06 01:13:10;;;;;;;3.67;2.90;;;;;;;;;;5037481;28;20064;-53
2021/12/06 01:15:37;;;;;;;4.05;3.65;;;;;;;;;;5036527;28;20048;-51
2021/12/06 01:18:05;;;;;;;3.95;2.78;;;;;;;;;;5037057;28;20450;-54
2021/12/06 01:20:33;;;;;;;5.85;4.38;;;;;;;;;;5035298;28;20030;-53
2021/12/06 01:23:05;;;;;;;5.07;3.10;;;;;;;;;;5036747;28;20608;-55
2021/12/06 01:28:47;;;;;;;3.17;2.63;;;;;;;;;;5036890;28;20028;-52
2021/12/06 01:39:08;;;;;;;4.32;2.97;;;;;;;;;;5038821;28;20043;-52
2021/12/06 01:39:37;;;;;;;4.28;3.20;;;;;;;;;;5034674;28;20049;-53
2021/12/06 01:42:06;;;;;;;3.10;2.75;;;;;;;;;;5040841;28;20468;-52
2021/12/06 01:44:35;;;;;;;3.90;3.10;;;;;;;;;;5036558;28;20128;-54
2021/12/06 01:47:17;;;;;;;4.45;2.92;;;;;;;;;;5038034;28;20040;-49
2021/12/06 01:49:51;;;;;;;3.70;2.80;;;;;;;;;;5039572;28;20096;-51
2021/12/06 01:52:22;;;;;;;6.90;3.10;;;;;;;;;;5035645;28;20912;-53
2021/12/06 01:54:48;;;;;;;4.00;2.90;;;;;;;;;;5039484;28;20258;-51
2021/12/06 01:57:14;;;;;;;3.97;2.75;;;;;;;;;;5036497;28;20091;-53
2021/12/06 01:59:40;;;;;;;3.00;2.33;;;;;;;;;;5033159;28;20060;-50
2021/12/06 02:02:06;;;;;;;3.10;2.63;;;;;;;;;;5035846;28;20025;-48
2021/12/06 02:04:34;;;;;;;3.35;2.90;;;;;;;;;;5035278;28;20025;-50
2021/12/06 02:07:00;;;;;;;3.15;2.50;;;;;;;;;;5039243;28;20044;-49
2021/12/06 02:09:27;;;;;;;3.15;2.70;;;;;;;;;;5036940;28;20117;-53
2021/12/06 02:11:57;;;;;;;3.22;2.75;;;;;;;;;;5037351;28;20151;-52
2021/12/06 02:17:09;;;;;;;3.17;2.30;;;;;;;;;;5039956;28;20069;-53
2021/12/06 02:19:40;;;;;;;2.72;2.28;;;;;;;;;;5034273;28;20029;-50
2021/12/06 02:22:08;;;;;;;3.25;2.60;;;;;;;;;;5033469;28;20108;-51
2021/12/06 02:24:37;;;;;;;3.90;3.05;;;;;;;;;;5033564;28;20041;-50
2021/12/06 02:27:02;;;;;;;4.07;3.60;;;;;;;;;;5038008;28;20033;-53
2021/12/06 02:29:28;;;;;;;3.13;2.53;;;;;;;;;;5034314;28;20029;-54
2021/12/06 02:31:54;;;;;;;2.83;2.13;;;;;;;;;;5037959;28;20030;-51
2021/12/06 02:34:20;;;;;;;3.63;3.05;;;;;;;;;;5037639;28;20044;-52
2021/12/06 02:36:48;;;;;;;5.53;3.50;;;;;;;;;;5035853;28;20041;-52
2021/12/06 02:39:20;;;;;;;4.18;3.53;;;;;;;;;;5039626;28;20037;-52
2021/12/06 02:41:48;;;;;;;4.72;3.58;;;;;;;;;;5036379;28;20772;-52
2021/12/06 02:44:15;;;;;;;4.25;2.50;;;;;;;;;;5037085;28;20048;-52
2021/12/06 02:46:41;;;;;;;3.65;2.88;;;;;;;;;;5035597;28;20060;-51
2021/12/06 02:49:07;;;;;;;2.80;2.22;;;;;;;;;;5034310;28;20064;-53
2021/12/06 02:51:32;;;;;;;3.33;2.60;;;;;;;;;;5033386;28;20687;-52
2021/12/06 02:53:58;;;;;;;13.95;2.67;;;;;;;;;;5037310;28;20510;-49
2021/12/06 02:56:39;;;;;;;3.22;2.58;;;;;;;;;;5035867;28;20029;-53
2021/12/06 02:59:08;;;;;;;3.88;2.63;;;;;;;;;;5034088;28;20176;-52
2021/12/06 03:01:44;;;;;;;3.13;2.53;;;;;;;;;;5036745;28;20041;-53
2021/12/06 03:04:10;;;;;;;3.20;2.58;;;;;;;;;;5034500;28;20033;-50
2021/12/06 03:06:36;;;;;;;3.90;2.95;;;;;;;;;;5033631;28;20064;-53
2021/12/06 03:09:14;;;;;;;4.28;3.10;;;;;;;;;;5033163;28;20677;-52
2021/12/06 03:11:44;;;;;;;3.50;2.78;;;;;;;;;;5032548;28;20033;-55
2021/12/06 03:14:12;;;;;;;3.47;2.47;;;;;;;;;;5032939;28;20040;-52
2021/12/06 03:16:39;;;;;;;8.30;3.25;;;;;;;;;;5034098;28;20029;-50
2021/12/06 03:19:06;;;;;;;5.47;2.97;;;;;;;;;;5037848;28;20041;-53
2021/12/06 03:21:32;;;;;;;3.63;3.00;;;;;;;;;;5036117;28;20037;-52
2021/12/06 03:23:58;;;;;;;4.47;3.05;;;;;;;;;;5035695;28;20037;-49
2021/12/06 03:26:25;;;;;;;2.83;2.30;;;;;;;;;;5034734;28;20039;-53
2021/12/06 03:28:52;;;;;;;3.60;2.50;;;;;;;;;;5034121;28;20048;-51
2021/12/06 03:31:18;;;;;;;2.80;2.20;;;;;;;;;;5031888;28;20029;-53
2021/12/06 03:33:46;;;;;;;4.15;3.35;;;;;;;;;;5037246;28;20091;-52
2021/12/06 03:36:13;;;;;;;3.28;2.38;;;;;;;;;;5034589;28;20490;-50
2021/12/06 03:38:40;;;;;;;3.63;2.70;;;;;;;;;;5033348;28;20030;-53
2021/12/06 03:41:08;;;;;;;5.88;2.70;;;;;;;;;;5038141;28;20053;-52
2021/12/06 03:43:34;;;;;;;3.70;2.72;;;;;;;;;;5034977;28;20044;-50
2021/12/06 03:46:00;;;;;;;4.32;2.70;;;;;;;;;;5035295;28;20506;-54
2021/12/06 03:48:25;;;;;;;3.63;2.63;;;;;;;;;;5035252;28;20037;-52
2021/12/06 03:50:51;;;;;;;2.67;2.03;;;;;;;;;;5034445;28;20103;-53
2021/12/06 03:53:17;;;;;;;3.38;3.03;;;;;;;;;;5032951;28;20099;-53
2021/12/06 03:55:43;;;;;;;4.82;3.33;;;;;;;;;;5036473;28;20038;-53
2021/12/06 03:58:08;;;;;;;2.90;2.50;;;;;;;;;;5035244;28;20473;-52
2021/12/06 04:00:34;;;;;;;3.22;2.35;;;;;;;;;;5034879;28;20044;-50
2021/12/06 04:02:59;;;;;;;4.55;3.20;;;;;;;;;;5036904;28;20074;-51
2021/12/06 04:05:25;;;;;;;3.25;2.25;;;;;;;;;;5036002;28;20040;-53
2021/12/06 04:07:51;;;;;;;3.33;2.67;;;;;;;;;;5039045;28;20120;-52
2021/12/06 04:10:16;;;;;;;3.10;2.35;;;;;;;;;;5037279;28;20128;-52
2021/12/06 04:12:42;;;;;;;3.30;2.80;;;;;;;;;;5037142;28;20500;-52
2021/12/06 04:15:09;;;;;;;3.45;2.78;;;;;;;;;;5036850;28;20071;-54
2021/12/06 04:17:38;;;;;;;2.92;2.30;;;;;;;;;;5033732;28;20472;-53
2021/12/06 04:20:09;;;;;;;3.13;2.47;;;;;;;;;;5035226;28;20414;-51
2021/12/06 04:22:35;;;;;;;4.07;3.20;;;;;;;;;;5033221;28;20149;-53
2021/12/06 04:25:02;;;;;;;4.18;3.00;;;;;;;;;;5035231;28;20033;-52
2021/12/06 04:27:29;;;;;;;3.28;2.55;;;;;;;;;;5031987;28;20360;-52
2021/12/06 04:29:55;;;;;;;3.30;2.65;;;;;;;;;;5033371;28;20129;-51
2021/12/06 04:32:21;;;;;;;6.57;3.60;;;;;;;;;;5035201;28;20437;-52
2021/12/06 04:34:47;;;;;;;6.53;3.40;;;;;;;;;;5037241;28;20032;-54
2021/12/06 04:37:12;;;;;;;3.83;2.88;;;;;;;;;;5035039;28;20117;-53
2021/12/06 04:39:39;;;;;;;3.65;3.00;;;;;;;;;;5033480;28;20090;-53
2021/12/06 04:42:06;;;;;;;3.42;2.42;;;;;;;;;;5033730;28;20038;-52
2021/12/06 04:44:32;;;;;;;3.10;2.40;;;;;;;;;;5031572;28;20033;-49
2021/12/06 04:46:58;;;;;;;3.55;2.80;;;;;;;;;;5032585;28;20040;-53
2021/12/06 04:49:26;;;;;;;3.65;2.90;;;;;;;;;;5038061;28;20033;-50
2021/12/06 04:51:54;;;;;;;3.30;2.63;;;;;;;;;;5036569;28;20041;-54
2021/12/06 04:54:24;;;;;;;3.35;2.53;;;;;;;;;;5039873;28;20132;-53
2021/12/06 04:56:56;;;;;;;3.35;2.50;;;;;;;;;;5038636;28;20454;-53
2021/12/06 04:59:28;;;;;;;3.17;2.83;;;;;;;;;;5035899;28;20347;-54
2021/12/06 05:01:57;;;;;;;4.68;3.17;;;;;;;;;;5037316;28;20041;-54
2021/12/06 05:04:28;;;;;;;3.17;2.65;;;;;;;;;;5034181;28;20098;-52
2021/12/06 05:07:03;;;;;;;6.57;4.28;;;;;;;;;;5037575;28;20065;-53
2021/12/06 05:09:32;;;;;;;3.60;3.22;;;;;;;;;;5038339;28;20047;-53
2021/12/06 05:11:58;;;;;;;3.83;3.17;;;;;;;;;;5039278;28;20470;-53
2021/12/06 05:14:25;;;;;;;4.32;3.40;;;;;;;;;;5036459;28;20037;-52
2021/12/06 05:16:51;;;;;;;3.75;3.05;;;;;;;;;;5039864;28;20037;-54
2021/12/06 05:19:17;;;;;;;4.00;3.03;;;;;;;;;;5037941;28;20033;-51
2021/12/06 05:21:42;;;;;;;4.40;3.60;;;;;;;;;;5031959;28;20037;-49
2021/12/06 05:24:08;;;;;;;5.57;3.45;;;;;;;;;;5036401;28;20668;-51
2021/12/06 05:26:34;;;;;;;6.03;4.35;;;;;;;;;;5037491;28;20044;-52
2021/12/06 05:29:01;;;;;;;4.93;3.67;;;;;;;;;;5034272;28;20032;-53
2021/12/06 05:31:29;;;;;;;4.75;3.38;;;;;;;;;;5037928;28;20090;-52
2021/12/06 05:34:01;;;;;;;3.60;2.75;;;;;;;;;;5037436;28;20040;-50
2021/12/06 05:36:26;;;;;;;2.80;2.22;;;;;;;;;;5037474;28;20438;-53
2021/12/06 05:38:54;;;;;;;3.60;2.90;;;;;;;;;;5034868;28;20025;-52
2021/12/06 05:41:19;;;;;;;3.38;3.08;;;;;;;;;;5041053;28;20025;-53
2021/12/06 05:43:45;;;;;;;3.75;2.60;;;;;;;;;;5036952;28;20171;-54
2021/12/06 05:46:10;;;;;;;3.35;3.05;;;;;;;;;;5038164;28;20104;-53
2021/12/06 05:48:36;;;;;;;4.10;3.10;;;;;;;;;;5038635;28;20025;-54
2021/12/06 05:51:02;;;;;;;3.33;2.28;;;;;;;;;;5035257;28;20037;-52
2021/12/06 05:53:28;;;;;;;4.70;2.83;;;;;;;;;;5041499;28;20487;-55
2021/12/06 05:55:53;;;;;;;3.53;3.05;;;;;;;;;;5037371;28;20048;-53
2021/12/06 05:58:22;;;;;;;5.32;3.38;;;;;;;;;;5035791;28;20034;-52
2021/12/06 06:00:49;;;;;;;3.08;2.60;;;;;;;;;;5036517;28;20040;-55
2021/12/06 06:03:15;;;;;;;4.38;3.13;;;;;;;;;;5032771;28;20473;-53
2021/12/06 06:05:41;;;;;;;4.13;3.33;;;;;;;;;;5031602;28;20064;-52
2021/12/06 06:08:07;;;;;;;4.35;3.25;;;;;;;;;;5034175;28;20068;-52
2021/12/06 06:10:33;;;;;;;3.80;3.17;;;;;;;;;;5034681;28;20088;-51
2021/12/06 06:13:00;;;;;;;5.63;3.38;;;;;;;;;;5036483;28;20033;-52
2021/12/06 06:15:28;;;;;;;7.00;4.88;;;;;;;;;;5034672;28;20128;-50
2021/12/06 06:17:54;;;;;;;3.03;2.42;;;;;;;;;;5036689;28;20021;-53
2021/12/06 06:20:23;;;;;;;7.68;4.53;;;;;;;;;;5036634;28;20474;-54
2021/12/06 06:22:49;;;;;;;3.88;3.47;;;;;;;;;;5037093;28;20029;-54
2021/12/06 06:25:15;;;;;;;4.82;4.32;;;;;;;;;;5035506;28;20051;-53
2021/12/06 06:27:42;;;;;;;4.05;3.22;;;;;;;;;;5039441;28;20037;-53
2021/12/06 06:30:08;;;;;;;4.97;3.17;;;;;;;;;;5039109;28;20044;-51
2021/12/06 06:32:33;;;;;;;3.58;2.70;;;;;;;;;;5034953;28;20033;-53
2021/12/06 06:34:59;;;;;;;4.47;2.80;;;;;;;;;;5034588;28;20042;-54
2021/12/06 06:37:25;;;;;;;4.80;3.90;;;;;;;;;;5036462;28;20072;-52
2021/12/06 06:39:51;;;;;;;3.47;2.92;;;;;;;;;;5036050;28;20095;-50
2021/12/06 06:42:16;;;;;;;4.35;3.45;;;;;;;;;;5037765;28;20096;-53
2021/12/06 06:44:42;;;;;;;4.30;3.60;;;;;;;;;;5033163;28;20037;-53
2021/12/06 06:47:07;;;;;;;3.42;2.80;;;;;;;;;;5029828;28;20029;-53
2021/12/06 06:49:33;;;;;;;5.00;3.42;;;;;;;;;;5031403;28;20025;-54
2021/12/06 06:52:00;;;;;;;3.58;3.05;;;;;;;;;;5033331;28;20047;-55
2021/12/06 06:54:26;;;;;;;5.20;3.25;;;;;;;;;;5032365;28;20033;-53
2021/12/06 06:56:51;;;;;;;4.03;3.05;;;;;;;;;;5035303;28;20048;-51
2021/12/06 06:59:16;;;;;;;5.07;3.50;;;;;;;;;;5032857;28;20454;-53
2021/12/06 07:01:44;;;;;;;4.47;3.25;;;;;;;;;;5033949;28;20520;-52
2021/12/06 07:04:09;;;;;;;3.28;2.72;;;;;;;;;;5035225;28;20048;-54
2021/12/06 07:06:35;;;;;;;5.22;3.83;;;;;;;;;;5031789;28;20026;-49
2021/12/06 07:09:00;;;;;;;2.75;2.17;;;;;;;;;;5034734;28;20047;-51
2021/12/06 07:11:27;;;;;;;3.72;3.15;;;;;;;;;;5033412;28;20037;-53
2021/12/06 07:13:52;;;;;;;3.47;2.45;;;;;;;;;;5033942;28;20084;-50
2021/12/06 07:16:18;;;;;;;3.22;2.85;;;;;;;;;;5034568;28;20033;-51
2021/12/06 07:18:44;;;;;;;5.30;3.30;;;;;;;;;;5039895;28;20459;-52
2021/12/06 07:21:10;;;;;;;7.20;3.75;;;;;;;;;;5035142;28;20033;-51
2021/12/06 07:23:38;;;;;;;3.58;2.65;;;;;;;;;;5032908;28;20599;-55
2021/12/06 07:26:12;;;;;;;4.38;3.50;;;;;;;;;;5033010;28;20113;-50
2021/12/06 07:28:38;;;;;;;5.78;3.20;;;;;;;;;;5033566;28;20037;-49
2021/12/06 07:31:06;;;;;;;3.85;3.33;;;;;;;;;;5034090;28;20067;-49
2021/12/06 07:33:34;;;;;;;7.80;4.78;;;;;;;;;;5036305;28;20033;-54
2021/12/06 07:36:01;;;;;;;4.85;3.28;;;;;;;;;;5032669;28;20127;-51
2021/12/06 07:38:27;;;;;;;10.27;7.45;;;;;;;;;;5032560;28;20033;-51
2021/12/06 07:40:53;;;;;;;5.78;4.88;;;;;;;;;;5034934;28;20037;-50
2021/12/06 07:43:18;;;;;;;5.78;4.03;;;;;;;;;;5036662;28;20116;-51
2021/12/06 07:45:44;;;;;;;5.55;4.55;;;;;;;;;;5033666;28;20120;-55
2021/12/06 07:48:10;;;;;;;4.47;3.67;;;;;;;;;;5036710;28;20095;-51
2021/12/06 07:50:36;;;;;;;3.92;3.17;;;;;;;;;;5035189;28;20087;-54
2021/12/06 07:53:01;;;;;;;5.53;4.22;;;;;;;;;;5033000;28;20037;-55
2021/12/06 07:55:30;;;;;;;4.20;3.67;;;;;;;;;;5033146;28;20040;-53
2021/12/06 07:57:57;;;;;;;5.63;4.07;;;;;;;;;;5031518;28;20033;-49
2021/12/06 08:00:24;;;;;;;3.53;3.10;;;;;;;;;;5033632;28;20025;-54
2021/12/06 08:02:50;;;;;;;3.90;3.15;;;;;;;;;;5033115;28;20040;-54
2021/12/06 08:05:33;;;;;;;6.90;4.25;;;;;;;;;;5031793;28;20038;-55
2021/12/06 08:08:12;;;;;;;4.15;3.42;;;;;;;;;;5034283;28;20036;-52
2021/12/06 08:10:43;;;;;;;4.85;3.70;;;;;;;;;;5034975;28;20079;-55
2021/12/06 08:13:12;;;;;;;3.72;3.10;;;;;;;;;;5036558;28;20099;-55
2021/12/06 08:15:38;;;;;;;5.25;3.83;;;;;;;;;;5033927;28;20038;-53
2021/12/06 08:18:05;;;;;;;4.07;3.13;;;;;;;;;;5036696;28;20123;-53
2021/12/06 08:20:30;;;;;;;3.78;3.13;;;;;;;;;;5032248;28;20072;-55
2021/12/06 08:22:56;;;;;;;9.68;4.88;;;;;;;;;;5033833;28;20028;-53
2021/12/06 08:25:22;;;;;;;5.93;3.70;;;;;;;;;;5036910;28;20060;-54
2021/12/06 08:27:47;;;;;;;3.80;3.40;;;;;;;;;;5037567;28;20068;-52
2021/12/06 08:30:16;;;;;;;5.15;3.92;;;;;;;;;;5038391;28;20343;-54
2021/12/06 08:32:41;;;;;;;4.70;3.83;;;;;;;;;;5036105;28;20029;-54
2021/12/06 08:35:08;;;;;;;4.25;3.53;;;;;;;;;;5039448;28;20145;-54
2021/12/06 08:37:34;;;;;;;6.82;3.58;;;;;;;;;;5034680;28;20036;-54
2021/12/06 08:40:00;;;;;;;3.90;3.13;;;;;;;;;;5037567;28;20029;-54
2021/12/06 08:42:25;;;;;;;4.57;3.60;;;;;;;;;;5039971;28;20116;-54
2021/12/06 08:44:52;;;;;;;4.93;2.88;;;;;;;;;;5037702;28;20166;-55
2021/12/06 08:47:17;;;;;;;4.40;3.70;;;;;;;;;;5038334;28;20051;-54
2021/12/06 08:49:43;;;;;;;3.60;3.05;;;;;;;;;;5038333;28;20613;-52
2021/12/06 08:52:09;;;;;;;4.25;3.33;;;;;;;;;;5037467;28;20064;-54
2021/12/06 08:54:34;;;;;;;4.35;3.75;;;;;;;;;;5042929;28;20364;-53
2021/12/06 08:57:02;;;;;;;5.68;4.30;;;;;;;;;;5039328;28;20505;-54
2021/12/06 08:59:28;;;;;;;4.28;3.53;;;;;;;;;;5034294;28;20038;-52
2021/12/06 09:01:57;;;;;;;6.07;3.72;;;;;;;;;;5036747;28;20549;-51
2021/12/06 09:04:24;;;;;;;4.82;3.55;;;;;;;;;;5035829;28;20485;-51
2021/12/06 09:06:52;;;;;;;3.92;3.35;;;;;;;;;;5036864;28;20049;-54
2021/12/06 09:09:18;;;;;;;5.03;3.15;;;;;;;;;;5039100;28;20025;-52
2021/12/06 09:11:46;;;;;;;3.63;3.22;;;;;;;;;;5038399;28;20443;-54
2021/12/06 09:14:12;;;;;;;5.55;4.10;;;;;;;;;;5037870;28;20047;-54
2021/12/06 09:16:39;;;;;;;4.22;3.28;;;;;;;;;;5036440;28;20029;-54
2021/12/06 09:19:07;;;;;;;4.38;3.75;;;;;;;;;;5042530;28;20037;-52
2021/12/06 09:21:37;;;;;;;5.03;3.42;;;;;;;;;;5037836;28;20048;-54
2021/12/06 09:24:05;;;;;;;5.10;4.35;;;;;;;;;;5035994;28;20037;-52
2021/12/06 09:26:31;;;;;;;4.93;4.25;;;;;;;;;;5033590;28;20053;-54
2021/12/06 09:28:57;;;;;;;6.10;4.35;;;;;;;;;;5035650;28;20041;-54
2021/12/06 09:31:24;;;;;;;3.60;2.90;;;;;;;;;;5036335;28;20052;-54
2021/12/06 09:33:50;;;;;;;4.22;3.17;;;;;;;;;;5034806;28;20436;-54
2021/12/06 09:36:18;;;;;;;4.72;4.05;;;;;;;;;;5033761;28;20504;-54
2021/12/06 09:38:44;;;;;;;6.47;3.40;;;;;;;;;;5035800;28;20071;-54
2021/12/06 09:41:22;;;;;;;5.80;4.00;;;;;;;;;;5034365;28;20033;-52
2021/12/06 09:43:50;;;;;;;4.07;3.67;;;;;;;;;;5031209;28;20034;-53
2021/12/06 09:46:17;;;;;;;5.63;4.20;;;;;;;;;;5041476;28;20087;-53
2021/12/06 09:48:45;;;;;;;4.10;3.42;;;;;;;;;;5039611;28;20036;-55
2021/12/06 09:51:15;;;;;;;3.75;3.35;;;;;;;;;;5037680;28;20104;-54
2021/12/06 09:53:42;;;;;;;4.97;3.92;;;;;;;;;;5038963;28;20041;-55
2021/12/06 09:56:12;;;;;;;4.07;3.25;;;;;;;;;;5035833;28;20029;-56
2021/12/06 09:58:39;;;;;;;4.55;3.75;;;;;;;;;;5036121;28;21761;-55
2021/12/06 10:01:15;;;;;;;3.80;3.30;;;;;;;;;;5035928;28;20112;-55
2021/12/06 10:03:44;;;;;;;3.80;3.17;;;;;;;;;;5032536;28;20116;-55
2021/12/06 10:06:09;;;;;;;4.57;3.90;;;;;;;;;;5032043;28;20538;-56
2021/12/06 10:08:38;;;;;;;5.45;4.35;;;;;;;;;;5034256;28;20116;-57
2021/12/06 10:11:07;;;;;;;4.55;3.45;;;;;;;;;;5034257;28;20029;-55
2021/12/06 10:13:34;;;;;;;3.78;3.38;;;;;;;;;;5037563;28;20370;-55
2021/12/06 10:15:59;;;;;;;4.82;4.15;;;;;;;;;;5036060;28;20029;-54
2021/12/06 10:18:25;;;;;;;5.35;4.10;;;;;;;;;;5031219;28;20033;-54
2021/12/06 10:20:51;;;;;;;5.30;4.30;;;;;;;;;;5015588;28;20044;-55
2021/12/06 10:23:18;;;;;;;4.00;3.60;;;;;;;;;;5022050;28;20065;-56
2021/12/06 10:25:47;;;;;;;5.75;4.00;;;;;;;;;;5027526;28;20052;-55
2021/12/06 10:28:16;;;;;;;4.15;3.75;;;;;;;;;;5030518;28;20116;-55
2021/12/06 10:30:48;;;;;;;6.63;5.25;;;;;;;;;;5032286;28;20144;-54
2021/12/06 10:33:17;;;;;;;4.35;3.72;;;;;;;;;;5031803;28;20061;-55
2021/12/06 10:35:45;;;;;;;4.85;4.18;;;;;;;;;;5032878;28;20141;-53
2021/12/06 10:38:17;;;;;;;5.03;4.13;;;;;;;;;;5033223;28;20400;-52
2021/12/06 10:40:42;;;;;;;5.05;4.30;;;;;;;;;;5034033;28;20501;-57
2021/12/06 10:43:12;;;;;;;6.47;4.93;;;;;;;;;;5035500;28;20426;-55
2021/12/06 10:45:49;;;;;;;6.07;4.68;;;;;;;;;;5030013;28;20025;-55
2021/12/06 10:48:20;;;;;;;5.75;4.22;;;;;;;;;;5035814;28;20033;-54
2021/12/06 10:50:59;;;;;;;5.75;4.40;;;;;;;;;;5031665;28;20055;-55
2021/12/06 10:53:32;;;;;;;5.13;4.45;;;;;;;;;;5034349;28;20036;-55
2021/12/06 10:55:58;;;;;;;6.95;5.25;;;;;;;;;;5032803;28;20041;-55
2021/12/06 10:58:26;;;;;;;4.90;4.35;;;;;;;;;;5034672;28;20033;-55
2021/12/06 11:00:55;;;;;;;5.13;4.63;;;;;;;;;;5034748;28;20037;-55
2021/12/06 11:03:25;;;;;;;5.15;4.65;;;;;;;;;;5037736;28;20048;-56
2021/12/06 11:05:58;;;;;;;6.63;5.17;;;;;;;;;;5031579;28;20040;-56
2021/12/06 11:08:24;;;;;;;5.63;4.95;;;;;;;;;;5036066;28;20144;-55
2021/12/06 11:10:54;;;;;;;7.85;5.57;;;;;;;;;;5035259;28;20029;-53
2021/12/06 11:13:34;;;;;;;5.78;4.82;;;;;;;;;;5036828;28;20109;-57
2021/12/06 11:16:10;;;;;;;5.93;4.55;;;;;;;;;;5031573;28;20497;-53
2021/12/06 11:18:40;;;;;;;5.55;3.95;;;;;;;;;;5036069;28;20691;-54
2021/12/06 11:21:15;;;;;;;7.57;3.92;;;;;;;;;;5035139;28;20033;-55
2021/12/06 11:24:16;;;;;;;7.05;4.15;;;;;;;;;;5035360;28;20510;-54
2021/12/06 11:26:59;;;;;;;9.57;4.70;;;;;;;;;;5035316;28;20123;-55
2021/12/06 11:29:33;;;;;;;5.70;5.03;;;;;;;;;;5030660;28;20443;-55
2021/12/06 11:32:03;;;;;;;4.70;4.07;;;;;;;;;;5030826;28;20176;-56
2021/12/06 11:34:37;;;;;;;5.00;4.10;;;;;;;;;;5037863;28;20441;-55
2021/12/06 11:37:09;;;;;;;5.57;4.43;;;;;;;;;;5031662;28;20124;-56
2021/12/06 11:39:34;;;;;;;5.50;4.63;;;;;;;;;;5034190;28;20041;-54
2021/12/06 11:42:00;;;;;;;4.65;4.03;;;;;;;;;;5036480;28;20532;-54
2021/12/06 11:44:31;;;;;;;7.57;4.80;;;;;;;;;;5033757;28;20451;-54
2021/12/06 11:47:03;;;;;;;5.05;3.97;;;;;;;;;;5032081;28;20068;-55
2021/12/06 11:49:33;;;;;;;6.68;4.68;;;;;;;;;;5033795;28;20061;-55
2021/12/06 11:51:59;;;;;;;4.18;3.72;;;;;;;;;;5034172;28;20142;-55
2021/12/06 11:54:25;;;;;;;6.95;5.07;;;;;;;;;;5035528;28;20041;-55
2021/12/06 11:56:51;;;;;;;5.90;4.50;;;;;;;;;;5036309;28;20391;-55
2021/12/06 11:59:18;;;;;;;5.20;4.63;;;;;;;;;;5020198;28;20029;-55
2021/12/06 12:01:53;;;;;;;6.00;5.05;;;;;;;;;;5041462;28;20033;-55
2021/12/06 12:04:24;;;;;;;6.05;5.45;;;;;;;;;;5038804;28;20124;-56
2021/12/06 12:06:56;;;;;;;;;;;;;;;;;;5040027;28;20036;-55
2021/12/06 12:09:34;;;;;;;6.22;4.03;;;;;;;;;;5038150;28;19912;-54
2021/12/06 12:12:11;;;;;;;6.43;4.70;;;;;;;;;;5037764;28;20052;-54
2021/12/06 12:14:50;;;;;;;6.70;4.57;;;;;;;;;;5037029;28;20116;-56
2021/12/06 12:17:22;;;;;;;5.15;4.65;;;;;;;;;;5038987;28;20029;-55
2021/12/06 12:19:50;;;;;;;4.68;4.18;;;;;;;;;;5035139;28;20029;-56
2021/12/06 12:22:18;;;;;;;6.57;4.82;;;;;;;;;;5039028;28;20507;-54
2021/12/06 12:24:47;;;;;;;7.22;4.70;;;;;;;;;;5036045;28;20033;-53
2021/12/06 12:30:00;;;;;;;5.30;4.07;;;;;;;;;;5039048;28;20029;-55
2021/12/06 12:32:27;;;;;;;4.65;4.05;;;;;;;;;;5041316;28;20037;-54
2021/12/06 12:34:54;;;;;;;6.13;5.53;;;;;;;;;;5041383;28;20029;-53
2021/12/06 12:37:21;;;;;;;5.97;4.88;;;;;;;;;;5035200;28;20041;-56
2021/12/06 12:40:01;;;;;;;6.93;5.18;;;;;;;;;;5038077;28;20045;-55
2021/12/06 12:42:27;;;;;;;5.97;5.13;;;;;;;;;;5039327;28;20045;-52
2021/12/06 12:44:54;;;;;;;6.85;5.25;;;;;;;;;;5037841;28;20060;-56
2021/12/06 12:47:26;;;;;;;7.97;6.18;;;;;;;;;;5033954;28;20036;-53
2021/12/06 12:49:58;;;;;;;7.07;5.18;;;;;;;;;;5035241;28;20362;-53
2021/12/06 12:52:36;;;;;;;7.32;6.40;;;;;;;;;;5039303;28;20350;-53
2021/12/06 12:55:17;;;;;;;7.97;6.53;;;;;;;;;;5040650;28;20044;-54
2021/12/06 12:57:42;;;;;;;8.85;6.50;;;;;;;;;;5038486;28;20407;-54
2021/12/06 13:00:17;;;;;;;10.07;5.70;;;;;;;;;;5036475;28;20033;-53
2021/12/06 13:02:42;;;;;;;8.23;6.32;;;;;;;;;;5037194;28;20512;-53
2021/12/06 13:05:15;;;;;;;7.45;5.05;;;;;;;;;;5036392;28;20175;-55
2021/12/06 13:07:41;;;;;;;8.60;6.38;;;;;;;;;;5035685;28;20061;-55
2021/12/06 13:10:35;;;;;;;5.40;4.78;;;;;;;;;;5038473;28;20044;-53
2021/12/06 13:13:21;;;;;;;8.60;5.63;;;;;;;;;;5035708;28;20048;-55
2021/12/06 13:16:06;;;;;;;4.82;4.32;;;;;;;;;;5036259;28;20043;-54
2021/12/06 13:19:05;;;;;;;7.30;5.47;;;;;;;;;;5036678;28;20036;-52
2021/12/06 13:21:38;;;;;;;7.20;5.80;;;;;;;;;;5037815;28;20573;-54
2021/12/06 13:24:11;;;;;;;8.85;6.57;;;;;;;;;;5037594;28;20105;-54
2021/12/06 13:26:39;;;;;;;6.75;4.35;;;;;;;;;;5037618;28;20095;-51
2021/12/06 13:29:28;;;;;;;12.38;7.05;;;;;;;;;;5034862;28;20126;-53
2021/12/06 13:31:54;;;;;;;6.80;4.65;;;;;;;;;;5036605;28;20120;-54
2021/12/06 13:34:29;;;;;;;10.50;6.47;;;;;;;;;;5038895;28;20366;-54
2021/12/06 13:36:58;;;;;;;5.57;4.55;;;;;;;;;;5036374;28;20141;-56
2021/12/06 13:39:29;;;;;;;5.80;5.00;;;;;;;;;;5035888;28;20072;-53
2021/12/06 13:41:55;;;;;;;8.07;6.47;;;;;;;;;;5037128;28;20047;-54
2021/12/06 13:44:22;;;;;;;5.43;4.88;;;;;;;;;;5037144;28;20033;-54
2021/12/06 13:46:52;;;;;;;8.20;6.18;;;;;;;;;;5052729;28;20039;-54
2021/12/06 13:49:19;;;;;;;8.32;5.10;;;;;;;;;;5036755;28;20040;-51
2021/12/06 13:52:05;;;;;;;7.45;4.90;;;;;;;;;;5034914;28;20048;-54
2021/12/06 13:54:37;;;;;;;4.90;4.32;;;;;;;;;;5039798;28;20047;-55
2021/12/06 13:57:10;;;;;;;7.65;5.22;;;;;;;;;;5036514;28;20045;-51
2021/12/06 13:59:43;;;;;;;5.22;4.55;;;;;;;;;;5035961;28;20037;-54
2021/12/06 14:02:21;;;;;;;7.00;5.85;;;;;;;;;;5037728;28;20061;-55
2021/12/06 14:04:48;;;;;;;5.85;5.28;;;;;;;;;;5037717;28;20037;-53
2021/12/06 14:07:18;;;;;;;5.88;4.82;;;;;;;;;;5036849;28;20548;-55
2021/12/06 14:09:49;;;;;;;6.25;5.65;;;;;;;;;;5036875;28;20076;-54
2021/12/06 14:12:19;;;;;;;6.15;5.55;;;;;;;;;;5036817;28;20051;-55
2021/12/06 14:14:49;;;;;;;7.63;6.05;;;;;;;;;;5028051;28;20044;-56
2021/12/06 14:17:16;;;;;;;7.78;6.07;;;;;;;;;;5033355;28;20025;-56
2021/12/06 14:19:43;;;;;;;6.05;5.20;;;;;;;;;;5036260;28;20045;-56
2021/12/06 14:22:10;;;;;;;6.50;5.28;;;;;;;;;;5034184;28;20604;-55
2021/12/06 14:24:39;;;;;;;6.60;5.35;;;;;;;;;;5035858;28;20045;-55
2021/12/06 14:27:07;;;;;;;6.22;5.63;;;;;;;;;;5038690;28;20120;-56
2021/12/06 14:29:33;;;;;;;6.05;5.45;;;;;;;;;;5035825;28;20052;-54
2021/12/06 14:32:01;;;;;;;5.25;4.70;;;;;;;;;;5036010;28;20037;-55
2021/12/06 14:34:33;;;;;;;9.95;5.60;;;;;;;;;;5037874;28;20036;-55
2021/12/06 14:37:04;;;;;;;7.53;5.43;;;;;;;;;;5034593;28;20033;-51
2021/12/06 14:39:29;;;;;;;6.93;5.95;;;;;;;;;;5035853;28;20044;-54
2021/12/06 14:41:58;;;;;;;5.43;4.65;;;;;;;;;;5032507;28;20040;-56
2021/12/06 14:44:37;;;;;;;6.10;5.50;;;;;;;;;;5035317;28;20087;-50
2021/12/06 14:47:05;;;;;;;6.90;6.20;;;;;;;;;;5036186;28;20029;-49
2021/12/06 14:49:32;;;;;;;6.00;5.43;;;;;;;;;;5034953;28;20432;-53
2021/12/06 14:52:05;;;;;;;7.97;6.25;;;;;;;;;;5035760;28;20041;-51
2021/12/06 14:54:32;;;;;;;5.93;4.90;;;;;;;;;;5024763;28;20037;-53
2021/12/06 14:57:03;;;;;;;8.77;6.38;;;;;;;;;;5031619;28;20108;-53
2021/12/06 14:59:33;;;;;;;13.45;6.93;;;;;;;;;;5022648;28;20056;-51
2021/12/06 15:01:59;;;;;;;5.78;4.78;;;;;;;;;;5028273;28;20467;-52
2021/12/06 15:04:39;;;;;;;5.93;5.28;;;;;;;;;;5035523;28;20041;-53
2021/12/06 15:07:07;;;;;;;6.65;5.38;;;;;;;;;;5016424;28;20502;-50